createdAt,value
2018-09-30T00:00:24.910Z,87.69
2018-09-30T00:02:53.350Z,87.09
2018-09-30T00:05:22.127Z,87.03
2018-09-30T00:07:50.723Z,87.59
2018-09-30T00:10:19.135Z,87.55
2018-09-30T00:12:47.559Z,87.26
2018-09-30T00:15:16.206Z,87.51
2018-09-30T00:17:44.638Z,89.37
2018-09-30T00:20:13.123Z,90.27
2018-09-30T00:22:41.599Z,89.83
2018-09-30T00:25:15.483Z,88.53
2018-09-30T00:27:43.931Z,87.81
2018-09-30T00:30:12.410Z,87.72
2018-09-30T00:32:40.907Z,87.10
2018-09-30T00:35:09.475Z,87.19
2018-09-30T00:37:37.927Z,86.85
2018-09-30T00:40:06.532Z,87.99
2018-09-30T00:42:35.011Z,86.51
2018-09-30T00:45:03.455Z,86.32
2018-09-30T00:47:32.191Z,87.17
2018-09-30T00:50:00.719Z,87.41
2018-09-30T00:52:29.221Z,86.66
2018-09-30T00:54:57.756Z,87.48
2018-09-30T00:57:26.214Z,88.40
2018-09-30T00:59:54.664Z,88.40
2018-09-30T01:02:23.126Z,87.97
2018-09-30T01:04:51.658Z,88.42
2018-09-30T01:07:20.068Z,89.14
2018-09-30T01:09:48.518Z,89.03
2018-09-30T01:12:17.039Z,89.49
2018-09-30T01:14:45.430Z,88.15
2018-09-30T01:17:13.945Z,88.60
2018-09-30T01:19:42.461Z,88.52
2018-09-30T01:22:10.903Z,87.40
2018-09-30T01:24:39.299Z,87.32
2018-09-30T01:27:07.782Z,88.61
2018-09-30T01:29:36.211Z,88.49
2018-09-30T01:32:04.767Z,86.89
2018-09-30T01:34:33.278Z,86.66
2018-09-30T01:37:01.750Z,87.09
2018-09-30T01:39:30.250Z,87.82
2018-09-30T01:41:58.739Z,90.00
2018-09-30T01:44:27.334Z,90.64
2018-09-30T01:46:55.910Z,90.07
2018-09-30T01:49:24.426Z,89.81
2018-09-30T01:52:04.027Z,89.14
2018-09-30T01:54:32.483Z,88.87
2018-09-30T01:57:00.963Z,90.56
2018-09-30T01:59:29.405Z,89.79
2018-09-30T02:01:57.867Z,88.68
2018-09-30T02:04:26.346Z,88.39
2018-09-30T02:06:54.886Z,88.50
2018-09-30T02:09:23.458Z,89.14
2018-09-30T02:11:51.970Z,88.89
2018-09-30T02:14:20.399Z,88.60
2018-09-30T02:16:48.947Z,89.58
2018-09-30T02:19:17.411Z,89.54
2018-09-30T02:21:45.950Z,90.54
2018-09-30T02:24:14.382Z,93.17
2018-09-30T02:26:43.051Z,91.56
2018-09-30T02:29:11.456Z,90.22
2018-09-30T02:31:40.020Z,89.87
2018-09-30T02:34:08.452Z,89.27
2018-09-30T02:36:36.874Z,88.50
2018-09-30T02:39:07.024Z,89.08
2018-09-30T02:41:35.423Z,88.91
2018-09-30T02:44:03.974Z,89.05
2018-09-30T02:46:32.486Z,88.72
2018-09-30T02:49:00.950Z,88.32
2018-09-30T02:51:29.510Z,88.93
2018-09-30T02:53:57.971Z,87.75
2018-09-30T02:56:26.431Z,89.24
2018-09-30T02:58:54.966Z,89.32
2018-09-30T03:01:23.569Z,88.42
2018-09-30T03:03:52.027Z,88.80
2018-09-30T03:06:25.802Z,88.34
2018-09-30T03:08:59.427Z,88.91
2018-09-30T03:11:27.872Z,89.52
2018-09-30T03:13:56.303Z,89.10
2018-09-30T03:16:24.735Z,90.04
2018-09-30T03:18:53.263Z,89.78
2018-09-30T03:21:21.847Z,89.01
2018-09-30T03:23:50.307Z,88.30
2018-09-30T03:26:18.942Z,88.18
2018-09-30T03:28:47.383Z,88.82
2018-09-30T03:31:15.811Z,89.02
2018-09-30T03:33:44.355Z,90.19
2018-09-30T03:36:12.832Z,88.78
2018-09-30T03:38:41.295Z,88.29
2018-09-30T03:41:09.747Z,88.87
2018-09-30T03:43:38.291Z,88.85
2018-09-30T03:46:06.847Z,89.31
2018-09-30T03:48:35.367Z,89.54
2018-09-30T03:51:03.852Z,88.83
2018-09-30T03:53:32.355Z,88.60
2018-09-30T03:56:00.864Z,88.41
2018-09-30T03:58:29.327Z,88.74
2018-09-30T04:00:58.062Z,88.97
2018-09-30T04:03:26.756Z,88.57
2018-09-30T04:05:55.407Z,89.02
2018-09-30T04:08:24.062Z,89.55
2018-09-30T04:10:52.526Z,88.94
2018-09-30T04:13:21.003Z,89.57
2018-09-30T04:15:49.435Z,89.77
2018-09-30T04:18:18.019Z,89.03
2018-09-30T04:20:46.511Z,89.01
2018-09-30T04:23:15.015Z,88.94
2018-09-30T04:25:43.515Z,89.49
2018-09-30T04:28:11.978Z,88.90
2018-09-30T04:30:40.489Z,88.84
2018-09-30T04:33:09.029Z,88.91
2018-09-30T04:35:37.483Z,88.55
2018-09-30T04:38:06.192Z,89.93
2018-09-30T04:40:34.671Z,87.78
2018-09-30T04:43:03.083Z,88.48
2018-09-30T04:45:31.472Z,88.34
2018-09-30T04:48:00.227Z,88.83
2018-09-30T04:50:28.727Z,90.05
2018-09-30T04:52:57.259Z,89.14
2018-09-30T04:55:25.888Z,90.02
2018-09-30T04:57:54.418Z,88.75
2018-09-30T05:00:22.896Z,89.10
2018-09-30T05:02:51.410Z,89.33
2018-09-30T05:05:19.907Z,88.95
2018-09-30T05:07:48.374Z,88.78
2018-09-30T05:10:17.023Z,89.72
2018-09-30T05:12:45.531Z,89.56
2018-09-30T05:15:13.964Z,89.73
2018-09-30T05:17:42.422Z,89.20
2018-09-30T05:20:10.868Z,88.62
2018-09-30T05:22:39.473Z,89.02
2018-09-30T05:25:08.241Z,90.28
2018-09-30T05:27:36.662Z,89.60
2018-09-30T05:30:05.670Z,90.45
2018-09-30T05:32:34.211Z,87.87
2018-09-30T05:35:02.627Z,90.13
2018-09-30T05:37:31.032Z,89.61
2018-09-30T05:39:59.727Z,89.48
2018-09-30T05:42:28.176Z,88.57
2018-09-30T05:44:56.647Z,90.13
2018-09-30T05:47:25.127Z,89.24
2018-09-30T05:49:53.637Z,90.35
2018-09-30T05:52:22.116Z,90.02
2018-09-30T05:54:50.989Z,88.36
2018-09-30T05:57:19.501Z,89.32
2018-09-30T05:59:48.011Z,89.09
2018-09-30T06:02:16.569Z,89.02
2018-09-30T06:04:45.127Z,89.27
2018-09-30T06:07:13.740Z,89.51
2018-09-30T06:09:42.647Z,90.84
2018-09-30T06:12:11.567Z,89.60
2018-09-30T06:14:40.071Z,88.89
2018-09-30T06:17:10.449Z,89.87
2018-09-30T06:19:39.296Z,89.66
2018-09-30T06:22:07.989Z,89.58
2018-09-30T06:24:36.474Z,90.55
2018-09-30T06:27:04.918Z,90.42
2018-09-30T06:29:33.435Z,90.45
2018-09-30T06:32:01.979Z,90.14
2018-09-30T06:34:30.432Z,88.60
2018-09-30T06:36:58.839Z,88.83
2018-09-30T06:39:27.589Z,88.44
2018-09-30T06:41:58.263Z,88.91
2018-09-30T06:44:26.829Z,88.40
2018-09-30T06:46:55.416Z,88.54
2018-09-30T06:49:23.899Z,88.26
2018-09-30T06:51:52.795Z,87.49
2018-09-30T06:54:21.194Z,87.51
2018-09-30T06:56:50.041Z,88.14
2018-09-30T06:59:18.747Z,87.41
2018-09-30T07:01:47.235Z,87.69
2018-09-30T07:04:15.776Z,88.02
2018-09-30T07:06:44.504Z,87.70
2018-09-30T07:09:12.970Z,87.55
2018-09-30T07:11:41.418Z,87.14
2018-09-30T07:14:10.264Z,86.62
2018-09-30T07:16:38.798Z,87.65
2018-09-30T07:19:07.375Z,87.34
2018-09-30T07:21:35.866Z,87.26
2018-09-30T07:24:04.402Z,87.14
2018-09-30T07:26:32.835Z,87.29
2018-09-30T07:29:01.518Z,86.12
2018-09-30T07:31:29.959Z,85.89
2018-09-30T07:33:58.641Z,85.35
2018-09-30T07:36:27.515Z,84.13
2018-09-30T07:38:55.986Z,84.29
2018-09-30T07:41:24.452Z,84.74
2018-09-30T07:43:53.186Z,84.11
2018-09-30T07:46:21.731Z,83.95
2018-09-30T07:48:50.401Z,83.65
2018-09-30T07:51:19.164Z,82.88
2018-09-30T07:53:51.534Z,81.12
2018-09-30T07:56:20.374Z,80.64
2018-09-30T07:58:48.939Z,80.04
2018-09-30T08:01:17.390Z,79.69
2018-09-30T08:03:46.060Z,80.04
2018-09-30T08:06:14.739Z,79.11
2018-09-30T08:08:43.283Z,79.25
2018-09-30T08:11:11.800Z,78.52
2018-09-30T08:13:40.262Z,77.76
2018-09-30T08:16:08.819Z,77.86
2018-09-30T08:18:37.449Z,76.48
2018-09-30T08:21:06.326Z,77.35
2018-09-30T08:23:35.369Z,75.81
2018-09-30T08:26:03.988Z,75.49
2018-09-30T08:28:32.416Z,74.57
2018-09-30T08:31:00.915Z,73.54
2018-09-30T08:33:29.641Z,73.57
2018-09-30T08:36:03.444Z,73.38
2018-09-30T08:38:33.471Z,73.65
2018-09-30T08:41:03.082Z,72.40
2018-09-30T08:43:33.418Z,72.46
2018-09-30T08:46:02.130Z,72.25
2018-09-30T08:48:33.382Z,72.84
2018-09-30T08:51:02.418Z,72.07
2018-09-30T08:53:31.084Z,71.36
2018-09-30T08:55:59.857Z,71.80
2018-09-30T08:58:29.319Z,71.15
2018-09-30T09:00:57.986Z,71.33
2018-09-30T09:03:27.017Z,70.43
2018-09-30T09:05:55.943Z,70.00
2018-09-30T09:08:24.372Z,69.99
2018-09-30T09:10:52.963Z,69.80
2018-09-30T09:13:21.602Z,69.43
2018-09-30T09:15:50.023Z,68.89
2018-09-30T09:18:18.443Z,67.89
2018-09-30T09:20:46.890Z,67.37
2018-09-30T09:23:15.382Z,67.30
2018-09-30T09:25:45.694Z,67.42
2018-09-30T09:28:15.691Z,65.55
2018-09-30T09:30:44.954Z,65.89
2018-09-30T09:33:13.725Z,65.21
2018-09-30T09:35:45.190Z,64.06
2018-09-30T09:38:13.674Z,63.01
2018-09-30T09:40:43.830Z,62.55
2018-09-30T09:43:13.397Z,61.38
2018-09-30T09:45:42.114Z,61.19
2018-09-30T09:48:10.594Z,61.27
2018-09-30T09:50:39.360Z,59.49
2018-09-30T09:53:07.951Z,60.02
2018-09-30T09:55:36.575Z,58.78
2018-09-30T09:58:05.377Z,57.40
2018-09-30T10:00:39.056Z,54.03
2018-09-30T10:03:07.666Z,55.80
2018-09-30T10:05:36.401Z,54.47
2018-09-30T10:08:05.344Z,54.15
2018-09-30T10:10:33.946Z,53.41
2018-09-30T10:13:02.615Z,51.70
2018-09-30T10:15:30.987Z,51.41
2018-09-30T10:17:59.546Z,52.05
2018-09-30T10:20:28.196Z,52.65
2018-09-30T10:22:56.689Z,52.03
2018-09-30T10:25:25.191Z,53.08
2018-09-30T10:27:53.902Z,53.59
2018-09-30T10:30:22.342Z,53.04
2018-09-30T10:32:51.123Z,52.94
2018-09-30T10:35:19.543Z,53.33
2018-09-30T10:37:48.126Z,53.26
2018-09-30T10:40:16.568Z,53.89
2018-09-30T10:42:45.071Z,52.45
2018-09-30T10:45:13.751Z,53.33
2018-09-30T10:47:42.463Z,53.18
2018-09-30T10:50:12.101Z,52.99
2018-09-30T10:52:40.694Z,52.39
2018-09-30T10:55:09.428Z,51.75
2018-09-30T10:57:37.866Z,52.37
2018-09-30T11:00:06.494Z,52.58
2018-09-30T11:02:35.100Z,52.18
2018-09-30T11:05:03.590Z,52.14
2018-09-30T11:07:33.394Z,52.10
2018-09-30T11:10:02.162Z,51.68
2018-09-30T11:12:30.663Z,51.61
2018-09-30T11:14:59.199Z,51.91
2018-09-30T11:17:27.759Z,52.86
2018-09-30T11:19:56.296Z,51.86
2018-09-30T11:22:24.779Z,51.46
2018-09-30T11:24:53.496Z,51.44
2018-09-30T11:27:21.988Z,51.20
2018-09-30T11:29:50.622Z,51.42
2018-09-30T11:32:19.347Z,51.10
2018-09-30T11:34:47.975Z,50.99
2018-09-30T11:37:16.511Z,51.43
2018-09-30T11:39:46.307Z,51.47
2018-09-30T11:42:14.811Z,50.80
2018-09-30T11:44:43.312Z,50.79
2018-09-30T11:47:12.202Z,50.00
2018-09-30T11:49:41.220Z,50.78
2018-09-30T11:52:09.791Z,51.42
2018-09-30T11:54:39.810Z,50.67
2018-09-30T11:57:09.349Z,50.44
2018-09-30T11:59:38.679Z,50.10
2018-09-30T12:02:07.752Z,50.58
2018-09-30T12:04:36.207Z,50.14
2018-09-30T12:07:04.807Z,50.50
2018-09-30T12:09:33.547Z,49.68
2018-09-30T12:12:02.066Z,49.78
2018-09-30T12:14:30.490Z,49.25
2018-09-30T12:16:59.130Z,49.47
2018-09-30T12:19:27.703Z,49.28
2018-09-30T12:21:56.143Z,49.80
2018-09-30T12:24:24.714Z,50.46
2018-09-30T12:26:53.191Z,49.64
2018-09-30T12:29:21.844Z,49.21
2018-09-30T12:31:50.319Z,49.49
2018-09-30T12:34:18.914Z,49.30
2018-09-30T12:36:47.343Z,49.87
2018-09-30T12:39:16.111Z,49.09
2018-09-30T12:41:44.518Z,49.96
2018-09-30T12:44:13.175Z,49.24
2018-09-30T12:46:42.071Z,50.12
2018-09-30T12:49:10.560Z,48.25
2018-09-30T12:51:39.300Z,48.22
2018-09-30T12:54:07.824Z,47.59
2018-09-30T12:56:36.269Z,48.25
2018-09-30T12:59:04.732Z,49.06
2018-09-30T13:01:33.275Z,48.14
2018-09-30T13:04:01.795Z,47.92
2018-09-30T13:06:30.210Z,46.81
2018-09-30T13:08:59.281Z,47.85
2018-09-30T13:11:27.843Z,47.35
2018-09-30T13:13:56.296Z,47.34
2018-09-30T13:16:25.065Z,48.90
2018-09-30T13:18:53.526Z,47.02
2018-09-30T13:21:22.066Z,47.53
2018-09-30T13:23:51.178Z,47.27
2018-09-30T13:26:19.687Z,47.08
2018-09-30T13:28:48.231Z,47.74
2018-09-30T13:31:16.853Z,46.64
2018-09-30T13:33:45.459Z,47.24
2018-09-30T13:36:13.959Z,47.17
2018-09-30T13:38:42.546Z,47.62
2018-09-30T13:41:11.179Z,46.72
2018-09-30T13:43:39.569Z,46.85
2018-09-30T13:46:08.251Z,46.32
2018-09-30T13:48:36.755Z,46.49
2018-09-30T13:51:05.634Z,46.66
2018-09-30T13:53:34.631Z,45.71
2018-09-30T13:56:03.179Z,46.13
2018-09-30T13:58:31.655Z,46.45
2018-09-30T14:01:00.183Z,45.90
2018-09-30T14:03:28.619Z,45.71
2018-09-30T14:05:57.283Z,45.32
2018-09-30T14:08:25.745Z,45.32
2018-09-30T14:10:54.203Z,45.82
2018-09-30T14:13:22.679Z,45.92
2018-09-30T14:15:51.290Z,46.37
2018-09-30T14:18:19.794Z,46.10
2018-09-30T14:20:48.287Z,46.41
2018-09-30T14:23:16.728Z,46.10
2018-09-30T14:25:45.228Z,46.34
2018-09-30T14:28:13.717Z,45.81
2018-09-30T14:30:42.323Z,45.10
2018-09-30T14:33:10.795Z,45.54
2018-09-30T14:35:39.227Z,46.48
2018-09-30T14:38:07.804Z,45.96
2018-09-30T14:40:36.242Z,46.24
2018-09-30T14:43:04.776Z,45.19
2018-09-30T14:45:33.347Z,46.30
2018-09-30T14:48:01.859Z,45.76
2018-09-30T14:50:30.331Z,45.08
2018-09-30T14:52:59.091Z,45.50
2018-09-30T14:55:27.709Z,45.24
2018-09-30T14:57:56.311Z,44.65
2018-09-30T15:00:24.839Z,45.24
2018-09-30T15:02:53.369Z,45.21
2018-09-30T15:05:21.871Z,46.21
2018-09-30T15:07:50.494Z,45.73
2018-09-30T15:10:19.162Z,46.15
2018-09-30T15:12:47.743Z,45.79
2018-09-30T15:15:16.467Z,45.90
2018-09-30T15:17:44.991Z,45.00
2018-09-30T15:20:13.542Z,45.35
2018-09-30T15:22:42.030Z,45.17
2018-09-30T15:25:11.613Z,45.24
2018-09-30T15:27:40.219Z,45.32
2018-09-30T15:30:09.127Z,46.15
2018-09-30T15:32:37.723Z,45.28
2018-09-30T15:35:06.216Z,46.38
2018-09-30T15:37:34.958Z,46.66
2018-09-30T15:40:03.523Z,46.51
2018-09-30T15:42:32.078Z,46.70
2018-09-30T15:45:00.614Z,45.90
2018-09-30T15:47:29.180Z,45.66
2018-09-30T15:49:57.691Z,46.08
2018-09-30T15:52:26.346Z,45.98
2018-09-30T15:54:54.865Z,46.55
2018-09-30T15:57:23.469Z,47.75
2018-09-30T15:59:51.964Z,47.60
2018-09-30T16:02:20.422Z,49.36
2018-09-30T16:04:48.957Z,48.85
2018-09-30T16:07:17.529Z,48.35
2018-09-30T16:09:46.035Z,48.21
2018-09-30T16:12:14.450Z,48.69
2018-09-30T16:14:42.932Z,49.24
2018-09-30T16:17:11.370Z,49.57
2018-09-30T16:19:39.895Z,50.68
2018-09-30T16:22:08.470Z,52.08
2018-09-30T16:24:37.139Z,51.60
2018-09-30T16:27:05.591Z,51.20
2018-09-30T16:29:34.467Z,52.77
2018-09-30T16:32:03.011Z,53.65
2018-09-30T16:34:31.528Z,53.82
2018-09-30T16:37:00.147Z,54.70
2018-09-30T16:39:28.688Z,54.42
2018-09-30T16:41:57.235Z,54.74
2018-09-30T16:44:25.984Z,56.34
2018-09-30T16:46:54.459Z,55.55
2018-09-30T16:49:23.311Z,55.59
2018-09-30T16:51:51.965Z,55.52
2018-09-30T16:54:24.910Z,55.56
2018-09-30T16:56:53.798Z,56.73
2018-09-30T16:59:22.923Z,58.21
2018-09-30T17:01:51.481Z,60.21
2018-09-30T17:04:20.035Z,60.37
2018-09-30T17:06:48.647Z,60.57
2018-09-30T17:09:18.562Z,61.67
2018-09-30T17:11:47.393Z,61.10
2018-09-30T17:14:16.439Z,60.58
2018-09-30T17:16:45.058Z,59.82
2018-09-30T17:19:14.549Z,59.35
2018-09-30T17:21:43.318Z,60.85
2018-09-30T17:24:11.775Z,60.44
2018-09-30T17:26:40.491Z,60.85
2018-09-30T17:29:09.530Z,60.49
2018-09-30T17:31:40.555Z,60.87
2018-09-30T17:34:09.848Z,61.26
2018-09-30T17:36:38.449Z,61.56
2018-09-30T17:39:08.714Z,62.36
2018-09-30T17:41:37.238Z,61.50
2018-09-30T17:44:05.874Z,60.60
2018-09-30T17:46:34.499Z,59.27
2018-09-30T17:49:03.136Z,59.26
2018-09-30T17:51:31.650Z,58.98
2018-09-30T17:54:01.261Z,58.16
2018-09-30T17:56:29.759Z,58.75
2018-09-30T17:58:58.464Z,61.61
2018-09-30T18:01:27.266Z,63.16
2018-09-30T18:03:56.460Z,63.26
2018-09-30T18:06:25.336Z,62.83
2018-09-30T18:08:54.267Z,61.86
2018-09-30T18:11:22.764Z,63.39
2018-09-30T18:13:51.622Z,64.10
2018-09-30T18:16:20.521Z,64.72
2018-09-30T18:18:48.963Z,57.86
2018-09-30T18:21:17.797Z,55.92
2018-09-30T18:23:46.936Z,56.04
2018-09-30T18:26:15.471Z,56.67
2018-09-30T18:28:44.007Z,56.93
2018-09-30T18:31:12.827Z,56.53
2018-09-30T18:33:41.780Z,57.24
2018-09-30T18:36:10.327Z,56.90
2018-09-30T18:38:39.358Z,56.98
2018-09-30T18:41:08.705Z,57.81
2018-09-30T18:43:38.220Z,57.32
2018-09-30T18:46:06.865Z,58.04
2018-09-30T18:48:36.131Z,57.76
2018-09-30T18:51:05.972Z,58.77
2018-09-30T18:53:35.407Z,60.00
2018-09-30T18:56:04.230Z,60.49
2018-09-30T18:58:33.015Z,59.30
2018-09-30T19:01:02.404Z,59.40
2018-09-30T19:03:31.920Z,59.33
2018-09-30T19:06:01.936Z,58.33
2018-09-30T19:08:30.659Z,57.91
2018-09-30T19:11:00.841Z,57.17
2018-09-30T19:13:29.880Z,56.59
2018-09-30T19:15:59.924Z,57.18
2018-09-30T19:18:29.126Z,57.66
2018-09-30T19:20:58.522Z,57.03
2018-09-30T19:23:27.204Z,57.38
2018-09-30T19:25:56.422Z,57.31
2018-09-30T19:28:26.043Z,57.72
2018-09-30T19:30:54.677Z,57.52
2018-09-30T19:33:23.224Z,57.95
2018-09-30T19:35:51.811Z,58.08
2018-09-30T19:38:21.851Z,58.66
2018-09-30T19:40:50.375Z,58.81
2018-09-30T19:43:19.011Z,57.98
2018-09-30T19:45:48.026Z,57.99
2018-09-30T19:48:16.568Z,58.30
2018-09-30T19:50:45.106Z,58.17
2018-09-30T19:53:13.704Z,58.07
2018-09-30T19:55:42.319Z,57.36
2018-09-30T19:58:11.359Z,57.23
2018-09-30T20:00:41.692Z,57.70
2018-09-30T20:03:10.528Z,56.56
2018-09-30T20:05:39.133Z,57.32
2018-09-30T20:08:07.839Z,57.15
2018-09-30T20:10:36.392Z,57.13
2018-09-30T20:13:04.887Z,57.34
2018-09-30T20:15:33.471Z,57.76
2018-09-30T20:18:01.982Z,57.15
2018-09-30T20:20:30.749Z,57.39
2018-09-30T20:22:59.242Z,57.63
2018-09-30T20:25:28.911Z,57.63
2018-09-30T20:27:57.708Z,58.04
2018-09-30T20:30:26.120Z,57.74
2018-09-30T20:32:54.666Z,57.22
2018-09-30T20:35:23.493Z,58.61
2018-09-30T20:37:52.552Z,60.51
2018-09-30T20:40:21.749Z,60.85
2018-09-30T20:42:50.183Z,61.59
2018-09-30T20:45:19.225Z,61.79
2018-09-30T20:47:48.236Z,62.90
2018-09-30T20:50:17.111Z,62.54
2018-09-30T20:52:45.617Z,60.31
2018-09-30T20:55:14.479Z,58.64
2018-09-30T20:57:42.962Z,58.37
2018-09-30T21:00:11.916Z,57.69
2018-09-30T21:02:40.627Z,57.72
2018-09-30T21:05:20.447Z,57.94
2018-09-30T21:07:49.859Z,59.40
2018-09-30T21:10:18.651Z,58.84
2018-09-30T21:12:47.315Z,59.32
2018-09-30T21:15:16.638Z,59.09
2018-09-30T21:17:45.249Z,60.18
2018-09-30T21:20:14.159Z,60.56
2018-09-30T21:22:44.890Z,60.92
2018-09-30T21:25:13.547Z,60.38
2018-09-30T21:27:42.059Z,62.04
2018-09-30T21:30:10.524Z,63.69
2018-09-30T21:32:39.391Z,64.41
2018-09-30T21:35:07.939Z,65.41
2018-09-30T21:37:36.439Z,65.73
2018-09-30T21:40:05.123Z,65.97
2018-09-30T21:42:33.894Z,66.39
2018-09-30T21:45:02.375Z,66.77
2018-09-30T21:47:30.882Z,66.51
2018-09-30T21:49:59.450Z,66.21
2018-09-30T21:52:27.993Z,67.88
2018-09-30T21:54:56.437Z,68.16
2018-09-30T21:57:24.982Z,69.25
2018-09-30T21:59:53.452Z,69.88
2018-09-30T22:02:21.903Z,70.45
2018-09-30T22:04:50.498Z,70.38
2018-09-30T22:07:19.031Z,71.28
2018-09-30T22:09:47.431Z,71.27
2018-09-30T22:12:15.871Z,71.28
2018-09-30T22:14:44.315Z,72.07
2018-09-30T22:17:12.767Z,73.07
2018-09-30T22:19:41.460Z,73.14
2018-09-30T22:22:10.101Z,74.01
2018-09-30T22:24:38.567Z,73.47
2018-09-30T22:27:07.259Z,75.84
2018-09-30T22:29:35.802Z,75.97
2018-09-30T22:32:04.378Z,76.32
2018-09-30T22:34:33.039Z,76.45
2018-09-30T22:37:01.547Z,76.25
2018-09-30T22:39:30.039Z,76.00
2018-09-30T22:41:58.709Z,76.42
2018-09-30T22:44:27.151Z,77.12
2018-09-30T22:46:55.612Z,77.94
2018-09-30T22:49:24.336Z,78.16
2018-09-30T22:51:52.843Z,77.96
2018-09-30T22:54:21.338Z,77.91
2018-09-30T22:56:49.848Z,78.41
2018-09-30T22:59:18.323Z,78.70
2018-09-30T23:01:46.858Z,78.96
2018-09-30T23:04:15.321Z,80.22
2018-09-30T23:06:43.849Z,80.77
2018-09-30T23:09:12.291Z,80.27
2018-09-30T23:11:40.912Z,80.43
2018-09-30T23:14:09.483Z,80.83
2018-09-30T23:16:38.068Z,80.61
2018-09-30T23:19:06.747Z,80.75
2018-09-30T23:21:35.171Z,81.65
2018-09-30T23:24:03.690Z,81.65
2018-09-30T23:26:32.489Z,82.02
2018-09-30T23:29:00.943Z,81.96
2018-09-30T23:31:29.379Z,82.34
2018-09-30T23:33:57.900Z,82.48
2018-09-30T23:36:26.307Z,82.49
2018-09-30T23:38:54.842Z,82.48
2018-09-30T23:41:23.390Z,82.81
2018-09-30T23:43:51.788Z,82.02
2018-09-30T23:46:20.223Z,81.80
2018-09-30T23:48:48.971Z,81.97
2018-09-30T23:51:17.495Z,82.17
2018-09-30T23:53:46.027Z,81.20
2018-09-30T23:56:14.679Z,80.96
2018-09-30T23:58:43.194Z,80.36
